createdAt,value
2022-10-25T00:00:50.613Z,39.90
2022-10-25T00:03:30.007Z,68.45
2022-10-25T00:05:56.842Z,51.13
2022-10-25T00:08:23.918Z,55.17
2022-10-25T00:10:50.732Z,35.30
2022-10-25T00:13:17.825Z,36.45
2022-10-25T00:15:44.706Z,36.88
2022-10-25T00:18:11.773Z,42.05
2022-10-25T00:20:38.768Z,36.08
2022-10-25T00:23:05.938Z,35.78
2022-10-25T00:25:32.807Z,35.60
2022-10-25T00:27:59.892Z,41.72
2022-10-25T00:30:26.748Z,35.67
2022-10-25T00:32:54.549Z,37.25
2022-10-25T00:35:21.450Z,35.40
2022-10-25T00:37:48.984Z,34.13
2022-10-25T00:40:16.046Z,32.72
2022-10-25T00:42:43.540Z,30.80
2022-10-25T00:45:25.180Z,33.78
2022-10-25T00:48:02.162Z,32.88
2022-10-25T00:50:29.004Z,32.10
2022-10-25T00:53:00.146Z,31.83
2022-10-25T00:55:27.880Z,32.05
2022-10-25T00:58:10.512Z,32.13
2022-10-25T01:00:37.531Z,32.42
2022-10-25T01:03:05.832Z,30.55
2022-10-25T01:05:34.289Z,32.78
2022-10-25T01:08:01.592Z,31.55
2022-10-25T01:10:29.614Z,32.50
2022-10-25T01:12:56.976Z,33.63
2022-10-25T01:15:29.770Z,30.90
2022-10-25T01:18:12.417Z,33.90
2022-10-25T01:21:07.230Z,31.08
2022-10-25T01:24:16.006Z,31.05
2022-10-25T01:27:01.110Z,32.70
2022-10-25T01:29:46.563Z,31.08
2022-10-25T01:32:22.975Z,32.85
2022-10-25T01:34:58.998Z,31.10
2022-10-25T01:37:34.324Z,32.20
2022-10-25T01:40:23.907Z,33.25
2022-10-25T01:43:02.912Z,33.50
2022-10-25T01:45:34.371Z,36.30
2022-10-25T01:48:04.168Z,33.17
2022-10-25T01:50:33.658Z,40.38
2022-10-25T01:53:00.523Z,34.35
2022-10-25T01:55:35.127Z,34.63
2022-10-25T01:58:27.977Z,32.65
2022-10-25T02:00:59.443Z,33.65
2022-10-25T02:03:40.483Z,34.40
2022-10-25T02:06:07.596Z,35.05
2022-10-25T02:08:34.356Z,33.33
2022-10-25T02:11:18.215Z,33.65
2022-10-25T02:14:27.838Z,32.17
2022-10-25T02:17:01.065Z,31.73
2022-10-25T02:19:50.093Z,32.97
2022-10-25T02:22:19.981Z,32.35
2022-10-25T02:24:47.787Z,34.20
2022-10-25T02:27:15.754Z,33.97
2022-10-25T02:29:43.172Z,33.63
2022-10-25T02:32:10.011Z,32.15
2022-10-25T02:34:37.162Z,34.28
2022-10-25T02:37:04.041Z,33.95
2022-10-25T02:39:31.897Z,34.55
2022-10-25T02:42:02.403Z,35.42
2022-10-25T02:44:29.590Z,35.53
2022-10-25T02:46:56.487Z,34.10
2022-10-25T02:49:23.597Z,35.17
2022-10-25T02:54:18.508Z,32.70
2022-10-25T02:56:45.411Z,33.92
2022-10-25T02:59:15.395Z,34.85
2022-10-25T03:01:42.326Z,33.17
2022-10-25T03:04:09.436Z,32.92
2022-10-25T03:06:36.310Z,36.10
2022-10-25T03:09:03.868Z,34.92
2022-10-25T03:11:30.759Z,45.85
2022-10-25T03:13:57.842Z,48.97
2022-10-25T03:16:24.708Z,49.58
2022-10-25T03:18:51.831Z,37.13
2022-10-25T03:21:18.663Z,34.30
2022-10-25T03:23:46.005Z,34.88
2022-10-25T03:26:12.936Z,35.33
2022-10-25T03:28:39.976Z,37.35
2022-10-25T03:31:12.699Z,35.13
2022-10-25T03:33:40.598Z,35.30
2022-10-25T03:36:07.846Z,34.67
2022-10-25T03:38:35.468Z,33.97
2022-10-25T03:41:02.323Z,35.30
2022-10-25T03:43:29.474Z,34.65
2022-10-25T03:45:56.519Z,34.28
2022-10-25T03:48:23.679Z,33.95
2022-10-25T03:50:50.627Z,35.40
2022-10-25T03:53:17.760Z,35.28
2022-10-25T03:55:44.795Z,35.30
2022-10-25T03:58:11.819Z,34.80
2022-10-25T04:00:38.901Z,34.83
2022-10-25T04:05:33.873Z,33.90
2022-10-25T04:08:01.237Z,33.83
2022-10-25T04:10:28.143Z,34.80
2022-10-25T04:12:55.547Z,33.80
2022-10-25T04:15:23.259Z,33.78
2022-10-25T04:17:51.658Z,35.97
2022-10-25T04:20:18.928Z,36.03
2022-10-25T04:22:46.255Z,36.25
2022-10-25T04:25:13.147Z,37.08
2022-10-25T04:27:40.191Z,36.45
2022-10-25T04:30:07.539Z,35.22
2022-10-25T04:32:34.567Z,37.55
2022-10-25T04:35:01.439Z,37.97
2022-10-25T04:37:28.482Z,39.67
2022-10-25T04:39:55.405Z,41.13
2022-10-25T04:42:22.448Z,40.75
2022-10-25T04:44:49.326Z,39.78
2022-10-25T04:47:16.768Z,41.95
2022-10-25T04:49:43.608Z,44.03
2022-10-25T04:52:10.939Z,44.28
2022-10-25T04:54:37.821Z,45.55
2022-10-25T04:57:07.195Z,46.30
2022-10-25T04:59:34.319Z,44.45
2022-10-25T05:02:01.993Z,45.55
2022-10-25T05:04:28.863Z,44.13
2022-10-25T05:06:55.985Z,44.55
2022-10-25T05:09:22.976Z,42.00
2022-10-25T05:11:50.196Z,41.67
2022-10-25T05:14:17.050Z,42.65
2022-10-25T05:16:44.173Z,42.47
2022-10-25T05:19:11.080Z,41.30
2022-10-25T05:21:38.149Z,41.13
2022-10-25T05:24:05.245Z,42.47
2022-10-25T05:26:32.564Z,42.10
2022-10-25T05:28:59.646Z,41.45
2022-10-25T05:31:29.053Z,41.80
2022-10-25T05:34:00.493Z,40.47
2022-10-25T05:36:32.938Z,40.33
2022-10-25T05:39:03.668Z,39.50
2022-10-25T05:41:33.383Z,40.83
2022-10-25T05:44:03.177Z,38.78
2022-10-25T05:46:30.394Z,41.58
2022-10-25T05:48:59.135Z,40.13
2022-10-25T05:51:33.325Z,42.20
2022-10-25T05:54:12.098Z,39.35
2022-10-25T05:56:40.427Z,38.22
2022-10-25T05:59:14.875Z,39.70
2022-10-25T06:01:44.391Z,41.20
2022-10-25T06:04:11.986Z,40.88
2022-10-25T06:06:40.264Z,48.10
2022-10-25T06:09:07.561Z,58.78
2022-10-25T06:11:34.971Z,47.85
2022-10-25T06:14:01.902Z,45.53
2022-10-25T06:16:29.197Z,40.42
2022-10-25T06:18:56.179Z,40.13
2022-10-25T06:21:25.425Z,38.45
2022-10-25T06:23:53.023Z,39.85
2022-10-25T06:26:25.155Z,40.22
2022-10-25T06:28:54.362Z,41.45
2022-10-25T06:31:21.952Z,42.53
2022-10-25T06:33:48.904Z,39.83
2022-10-25T06:36:18.025Z,41.45
2022-10-25T06:38:45.841Z,39.20
2022-10-25T06:41:17.882Z,40.40
2022-10-25T06:43:44.888Z,41.72
2022-10-25T06:46:30.111Z,41.25
2022-10-25T06:48:57.960Z,40.13
2022-10-25T06:51:26.942Z,40.88
2022-10-25T06:53:55.172Z,42.95
2022-10-25T06:56:22.638Z,39.85
2022-10-25T06:58:49.534Z,39.88
2022-10-25T07:01:18.224Z,41.28
2022-10-25T07:03:46.228Z,38.30
2022-10-25T07:06:14.749Z,40.10
2022-10-25T07:08:43.449Z,38.17
2022-10-25T07:11:18.426Z,38.08
2022-10-25T07:13:45.683Z,39.78
2022-10-25T07:16:17.384Z,40.00
2022-10-25T07:18:45.193Z,39.03
2022-10-25T07:21:15.266Z,41.90
2022-10-25T07:23:42.669Z,39.03
2022-10-25T07:26:14.957Z,38.85
2022-10-25T07:28:43.911Z,40.05
2022-10-25T07:31:19.038Z,41.03
2022-10-25T07:33:45.947Z,42.22
2022-10-25T07:36:13.063Z,41.78
2022-10-25T07:38:40.200Z,41.65
2022-10-25T07:41:08.225Z,43.70
2022-10-25T07:43:35.405Z,47.25
2022-10-25T07:46:03.252Z,49.42
2022-10-25T07:48:30.216Z,50.42
2022-10-25T07:50:57.330Z,49.90
2022-10-25T07:53:24.222Z,52.75
2022-10-25T07:55:52.399Z,53.60
2022-10-25T07:58:19.512Z,50.15
2022-10-25T08:00:46.946Z,48.90
2022-10-25T08:03:15.545Z,45.08
2022-10-25T08:05:46.644Z,45.45
2022-10-25T08:08:14.244Z,45.65
2022-10-25T08:10:42.352Z,43.33
2022-10-25T08:13:09.433Z,42.58
2022-10-25T08:15:36.818Z,42.35
2022-10-25T08:18:04.309Z,41.03
2022-10-25T08:20:56.433Z,40.22
2022-10-25T08:23:18.674Z,38.20
2022-10-25T08:25:46.229Z,37.42
2022-10-25T08:28:13.312Z,38.95
2022-10-25T08:30:41.432Z,38.78
2022-10-25T08:33:11.603Z,37.55
2022-10-25T08:35:39.563Z,38.35
2022-10-25T08:38:06.676Z,35.72
2022-10-25T08:41:01.392Z,35.00
2022-10-25T08:44:06.000Z,34.15
2022-10-25T08:46:55.036Z,34.97
2022-10-25T08:49:55.070Z,34.65
2022-10-25T08:52:26.635Z,32.60
2022-10-25T08:54:53.675Z,31.95
2022-10-25T08:57:26.014Z,29.77
2022-10-25T08:59:59.426Z,29.83
2022-10-25T09:02:40.268Z,30.05
2022-10-25T09:05:44.770Z,28.52
2022-10-25T09:08:45.807Z,27.55
2022-10-25T09:11:33.762Z,27.35
2022-10-25T09:14:03.918Z,26.98
2022-10-25T09:17:12.198Z,27.20
2022-10-25T09:19:44.511Z,27.17
2022-10-25T09:22:35.590Z,27.20
2022-10-25T09:25:07.164Z,26.33
2022-10-25T09:27:35.370Z,26.42
2022-10-25T09:30:09.094Z,24.55
2022-10-25T09:32:48.383Z,24.08
2022-10-25T09:35:21.466Z,24.45
2022-10-25T09:38:14.024Z,22.55
2022-10-25T09:40:47.924Z,22.25
2022-10-25T09:43:19.014Z,21.42
2022-10-25T09:46:01.559Z,20.08
2022-10-25T09:48:50.088Z,18.65
2022-10-25T09:51:26.168Z,19.33
2022-10-25T09:53:53.407Z,19.45
2022-10-25T09:56:20.501Z,19.50
2022-10-25T09:58:47.614Z,20.33
2022-10-25T10:01:26.979Z,20.33
2022-10-25T10:04:00.363Z,21.42
2022-10-25T10:06:37.898Z,20.88
2022-10-25T10:09:07.733Z,21.05
2022-10-25T10:11:36.013Z,23.45
2022-10-25T10:14:29.688Z,22.88
2022-10-25T10:16:58.104Z,24.52
2022-10-25T10:19:26.762Z,23.85
2022-10-25T10:21:56.620Z,24.50
2022-10-25T10:24:27.066Z,22.27
2022-10-25T10:26:59.319Z,23.73
2022-10-25T10:29:31.177Z,21.40
2022-10-25T10:32:01.446Z,22.95
2022-10-25T10:34:32.136Z,21.60
2022-10-25T10:37:17.403Z,21.70
2022-10-25T10:39:55.725Z,20.25
2022-10-25T10:42:34.179Z,20.50
2022-10-25T10:45:11.915Z,20.80
2022-10-25T10:47:51.056Z,21.33
2022-10-25T10:50:24.396Z,19.17
2022-10-25T10:52:58.266Z,19.02
2022-10-25T10:55:35.631Z,19.15
2022-10-25T10:58:07.427Z,18.98
2022-10-25T11:00:35.011Z,19.50
2022-10-25T11:03:02.179Z,19.33
2022-10-25T11:05:31.932Z,18.90
2022-10-25T11:08:17.596Z,18.90
2022-10-25T11:10:44.528Z,17.88
2022-10-25T11:13:16.808Z,16.02
2022-10-25T11:16:08.641Z,16.33
2022-10-25T11:19:00.037Z,16.52
2022-10-25T11:21:36.901Z,18.15
2022-10-25T11:24:49.809Z,17.13
2022-10-25T11:27:16.671Z,16.95
2022-10-25T11:29:56.220Z,17.45
2022-10-25T11:32:55.540Z,17.55
2022-10-25T11:35:44.916Z,16.92
2022-10-25T11:38:15.531Z,16.77
2022-10-25T11:40:55.502Z,18.40
2022-10-25T11:44:16.609Z,18.70
2022-10-25T11:46:49.212Z,19.02
2022-10-25T11:49:38.378Z,19.17
2022-10-25T11:55:18.095Z,18.90
2022-10-25T11:58:12.897Z,18.17
2022-10-25T12:00:56.340Z,17.25
2022-10-25T12:03:41.700Z,17.05
2022-10-25T12:06:08.622Z,16.30
2022-10-25T12:09:08.037Z,15.88
2022-10-25T12:11:41.613Z,15.38
2022-10-25T12:14:12.885Z,13.75
2022-10-25T12:16:40.708Z,13.60
2022-10-25T12:19:24.317Z,13.27
2022-10-25T12:22:05.222Z,13.63
2022-10-25T12:24:51.991Z,12.63
2022-10-25T12:27:20.006Z,13.77
2022-10-25T12:29:51.362Z,13.75
2022-10-25T12:32:25.748Z,13.00
2022-10-25T12:34:54.271Z,13.35
2022-10-25T12:37:36.562Z,13.20
2022-10-25T12:40:05.459Z,12.88
2022-10-25T12:42:46.133Z,12.60
2022-10-25T12:45:25.587Z,13.40
2022-10-25T12:48:04.564Z,13.20
2022-10-25T12:50:34.536Z,13.18
2022-10-25T12:53:17.603Z,13.95
2022-10-25T12:55:44.696Z,12.98
2022-10-25T12:58:45.393Z,12.93
2022-10-25T13:01:57.804Z,12.25
2022-10-25T13:04:56.032Z,11.05
2022-10-25T13:07:23.508Z,11.50
2022-10-25T13:09:50.762Z,13.13
2022-10-25T13:12:36.041Z,11.93
2022-10-25T13:15:03.682Z,10.50
2022-10-25T13:17:44.732Z,11.00
2022-10-25T13:20:22.840Z,10.95
2022-10-25T13:22:50.076Z,11.07
2022-10-25T13:25:32.268Z,11.27
2022-10-25T13:28:11.266Z,11.98
2022-10-25T13:30:38.188Z,10.75
2022-10-25T13:33:24.416Z,10.98
2022-10-25T13:35:51.480Z,11.48
2022-10-25T13:38:24.688Z,11.10
2022-10-25T13:41:17.159Z,12.10
2022-10-25T13:44:17.519Z,11.50
2022-10-25T13:46:44.411Z,11.65
2022-10-25T13:49:26.680Z,12.70
2022-10-25T13:51:58.094Z,11.95
2022-10-25T13:54:29.916Z,11.80
2022-10-25T13:56:56.768Z,12.13
2022-10-25T13:59:37.547Z,10.35
2022-10-25T14:02:15.796Z,17.25
2022-10-25T14:04:43.022Z,12.57
2022-10-25T14:07:46.552Z,13.07
2022-10-25T14:12:53.593Z,13.40
2022-10-25T14:15:33.921Z,11.18
2022-10-25T14:18:06.743Z,11.55
2022-10-25T14:20:35.047Z,12.00
2022-10-25T14:23:07.659Z,10.93
2022-10-25T14:25:40.179Z,14.38
2022-10-25T14:28:10.567Z,13.57
2022-10-25T14:30:45.028Z,13.27
2022-10-25T14:33:26.624Z,14.25
2022-10-25T14:36:04.785Z,15.00
2022-10-25T14:38:32.670Z,15.18
2022-10-25T14:41:03.027Z,16.42
2022-10-25T14:43:34.659Z,14.90
2022-10-25T14:46:13.668Z,16.77
2022-10-25T14:48:42.405Z,18.98
2022-10-25T14:51:19.538Z,22.30
2022-10-25T14:53:50.940Z,19.58
2022-10-25T14:56:24.246Z,18.77
2022-10-25T14:58:51.564Z,15.80
2022-10-25T15:01:20.555Z,16.65
2022-10-25T15:03:50.357Z,14.40
2022-10-25T15:06:19.029Z,13.98
2022-10-25T15:08:51.809Z,15.07
2022-10-25T15:11:20.494Z,23.35
2022-10-25T15:13:49.375Z,17.67
2022-10-25T15:16:40.843Z,14.55
2022-10-25T15:19:12.390Z,15.35
2022-10-25T15:21:42.895Z,15.45
2022-10-25T15:24:19.426Z,14.80
2022-10-25T15:27:05.846Z,15.80
2022-10-25T15:29:41.894Z,16.20
2022-10-25T15:32:20.415Z,23.45
2022-10-25T15:34:59.035Z,25.63
2022-10-25T15:37:27.509Z,25.83
2022-10-25T15:39:56.000Z,21.23
2022-10-25T15:42:25.761Z,73.63
2022-10-25T15:44:52.821Z,44.92
2022-10-25T15:47:32.195Z,32.47
2022-10-25T15:49:59.839Z,20.08
2022-10-25T15:52:26.938Z,19.90
2022-10-25T15:54:54.002Z,20.80
2022-10-25T15:57:21.210Z,31.67
2022-10-25T15:59:48.145Z,29.92
2022-10-25T16:02:21.051Z,34.63
2022-10-25T16:04:48.211Z,24.52
2022-10-25T16:07:15.721Z,22.58
2022-10-25T16:09:43.199Z,32.83
2022-10-25T16:12:17.162Z,24.65
2022-10-25T16:14:44.094Z,28.42
2022-10-25T16:17:12.127Z,38.10
2022-10-25T16:19:38.939Z,38.67
2022-10-25T16:22:06.097Z,38.97
2022-10-25T16:24:32.972Z,18.83
2022-10-25T16:27:01.308Z,17.20
2022-10-25T16:29:28.268Z,18.92
2022-10-25T16:31:55.411Z,24.55
2022-10-25T16:34:22.260Z,21.13
2022-10-25T16:36:52.489Z,23.98
2022-10-25T16:39:19.514Z,23.95
2022-10-25T16:41:47.209Z,23.30
2022-10-25T16:44:19.235Z,31.60
2022-10-25T16:46:46.590Z,25.13
2022-10-25T16:49:13.500Z,24.80
2022-10-25T16:51:41.044Z,21.40
2022-10-25T16:54:08.713Z,14.25
2022-10-25T16:56:35.801Z,12.45
2022-10-25T16:59:02.831Z,13.13
2022-10-25T17:01:34.592Z,12.07
2022-10-25T17:04:04.107Z,13.95
2022-10-25T17:06:46.711Z,13.25
2022-10-25T17:09:13.701Z,12.90
2022-10-25T17:11:41.109Z,13.18
2022-10-25T17:14:11.768Z,14.00
2022-10-25T17:16:39.615Z,12.65
2022-10-25T17:19:06.563Z,12.77
2022-10-25T17:21:35.856Z,11.48
2022-10-25T17:24:04.691Z,11.75
2022-10-25T17:26:32.458Z,9.68
2022-10-25T17:29:00.918Z,11.98
2022-10-25T17:31:32.718Z,10.30
2022-10-25T17:34:00.503Z,10.30
2022-10-25T17:36:29.268Z,10.20
2022-10-25T17:38:56.149Z,10.55
2022-10-25T17:41:23.292Z,13.30
2022-10-25T17:43:52.075Z,13.18
2022-10-25T17:46:25.467Z,14.65
2022-10-25T17:48:57.163Z,15.73
2022-10-25T17:51:24.303Z,10.07
2022-10-25T17:53:54.212Z,10.02
2022-10-25T17:56:23.190Z,8.98
2022-10-25T17:58:50.725Z,9.07
2022-10-25T18:01:21.531Z,9.85
2022-10-25T18:03:48.764Z,9.55
2022-10-25T18:06:18.091Z,10.88
2022-10-25T18:08:48.176Z,12.15
2022-10-25T18:11:19.436Z,11.10
2022-10-25T18:13:46.366Z,13.13
2022-10-25T18:16:14.119Z,17.60
2022-10-25T18:18:41.081Z,13.10
2022-10-25T18:21:11.245Z,12.82
2022-10-25T18:23:38.818Z,13.82
2022-10-25T18:26:06.826Z,13.30
2022-10-25T18:28:34.090Z,13.38
2022-10-25T18:31:03.998Z,13.90
2022-10-25T18:33:32.018Z,17.73
2022-10-25T18:36:00.794Z,16.92
2022-10-25T18:38:27.913Z,20.63
2022-10-25T18:40:55.184Z,31.10
2022-10-25T18:43:23.515Z,25.33
2022-10-25T18:45:56.021Z,20.33
2022-10-25T18:48:23.179Z,16.70
2022-10-25T18:50:50.814Z,16.33
2022-10-25T18:53:18.462Z,16.05
2022-10-25T18:55:53.222Z,17.50
2022-10-25T18:58:20.575Z,23.65
2022-10-25T19:00:48.167Z,26.50
2022-10-25T19:03:16.583Z,24.45
2022-10-25T19:05:44.528Z,24.85
2022-10-25T19:08:12.331Z,23.52
2022-10-25T19:10:40.888Z,17.30
2022-10-25T19:13:12.465Z,27.13
2022-10-25T19:15:40.174Z,27.25
2022-10-25T19:18:07.790Z,18.83
2022-10-25T19:20:38.879Z,17.75
2022-10-25T19:23:08.620Z,23.08
2022-10-25T19:25:36.982Z,21.90
2022-10-25T19:28:04.624Z,25.08
2022-10-25T19:30:35.496Z,22.40
2022-10-25T19:33:05.360Z,21.27
2022-10-25T19:35:33.722Z,23.45
2022-10-25T19:38:01.080Z,20.23
2022-10-25T19:40:28.783Z,23.73
2022-10-25T19:42:56.084Z,23.25
2022-10-25T19:45:24.448Z,21.75
2022-10-25T19:47:55.976Z,21.65
2022-10-25T19:50:24.017Z,20.92
2022-10-25T19:52:51.855Z,18.17
2022-10-25T19:55:19.112Z,17.20
2022-10-25T19:57:46.181Z,20.63
2022-10-25T20:00:13.987Z,19.17
2022-10-25T20:02:41.199Z,20.02
2022-10-25T20:05:08.850Z,21.70
2022-10-25T20:07:35.985Z,24.67
2022-10-25T20:10:04.865Z,19.98
2022-10-25T20:12:31.819Z,20.15
2022-10-25T20:14:59.297Z,19.27
2022-10-25T20:17:26.244Z,19.83
2022-10-25T20:19:53.391Z,20.55
2022-10-25T20:22:20.245Z,22.17
2022-10-25T20:24:47.572Z,23.58
2022-10-25T20:27:14.495Z,23.75
2022-10-25T20:29:41.615Z,23.80
2022-10-25T20:32:08.529Z,25.75
2022-10-25T20:34:37.439Z,25.63
2022-10-25T20:37:05.141Z,23.85
2022-10-25T20:39:32.258Z,22.15
2022-10-25T20:41:59.164Z,23.60
2022-10-25T20:44:26.250Z,24.52
2022-10-25T20:46:53.061Z,21.38
2022-10-25T20:49:20.177Z,22.50
2022-10-25T20:51:47.026Z,22.50
2022-10-25T20:54:14.185Z,21.55
2022-10-25T20:56:41.034Z,24.02
2022-10-25T20:59:09.056Z,23.38
2022-10-25T21:01:36.150Z,22.77
2022-10-25T21:04:03.602Z,21.83
2022-10-25T21:06:30.473Z,21.33
2022-10-25T21:08:57.622Z,22.25
2022-10-25T21:11:24.530Z,21.05
2022-10-25T21:13:51.694Z,20.33
2022-10-25T21:16:18.641Z,20.75
2022-10-25T21:18:46.124Z,20.13
2022-10-25T21:21:18.058Z,22.13
2022-10-25T21:23:46.377Z,21.85
2022-10-25T21:26:13.383Z,22.00
2022-10-25T21:28:41.564Z,22.33
2022-10-25T21:31:10.813Z,22.13
2022-10-25T21:33:38.468Z,23.75
2022-10-25T21:36:09.848Z,22.85
2022-10-25T21:38:37.197Z,21.23
2022-10-25T21:41:14.775Z,22.48
2022-10-25T21:43:44.054Z,23.20
2022-10-25T21:46:11.678Z,21.58
2022-10-25T21:48:38.899Z,22.00
2022-10-25T21:51:05.990Z,21.75
2022-10-25T21:53:33.106Z,22.25
2022-10-25T21:56:11.149Z,22.55
2022-10-25T21:58:43.002Z,22.88
2022-10-25T22:01:21.250Z,22.70
2022-10-25T22:03:48.513Z,22.42
2022-10-25T22:06:17.719Z,22.05
2022-10-25T22:08:45.621Z,23.30
2022-10-25T22:11:18.482Z,22.42
2022-10-25T22:13:46.445Z,22.13
2022-10-25T22:16:14.144Z,22.50
2022-10-25T22:18:41.481Z,23.25
2022-10-25T22:21:11.130Z,23.55
2022-10-25T22:23:38.911Z,23.20
2022-10-25T22:26:11.786Z,24.23
2022-10-25T22:28:40.974Z,23.13
2022-10-25T22:31:11.127Z,24.52
2022-10-25T22:33:38.656Z,24.27
2022-10-25T22:36:08.520Z,24.17
2022-10-25T22:38:35.874Z,23.42
2022-10-25T22:41:09.391Z,25.08
2022-10-25T22:43:37.499Z,23.30
2022-10-25T22:46:06.760Z,23.25
2022-10-25T22:48:35.706Z,22.67
2022-10-25T22:51:02.615Z,22.05
2022-10-25T22:53:29.969Z,21.75
2022-10-25T22:56:02.246Z,20.80
2022-10-25T22:58:32.633Z,22.05
2022-10-25T23:01:07.200Z,23.92
2022-10-25T23:03:39.100Z,22.25
2022-10-25T23:06:08.149Z,21.65
2022-10-25T23:08:35.229Z,21.25
2022-10-25T23:11:07.505Z,19.75
2022-10-25T23:13:36.023Z,20.08
2022-10-25T23:16:03.875Z,20.65
2022-10-25T23:18:31.234Z,20.60
2022-10-25T23:20:59.728Z,20.95
2022-10-25T23:23:28.195Z,21.15
2022-10-25T23:25:57.302Z,21.80
2022-10-25T23:28:24.562Z,22.33
2022-10-25T23:30:51.437Z,22.85
2022-10-25T23:33:18.484Z,20.83
2022-10-25T23:35:45.333Z,20.88
2022-10-25T23:38:13.539Z,20.33
2022-10-25T23:40:40.545Z,19.02
2022-10-25T23:43:08.607Z,19.40
2022-10-25T23:45:35.493Z,19.85
2022-10-25T23:48:02.559Z,19.15
2022-10-25T23:50:29.382Z,18.42
2022-10-25T23:52:56.507Z,19.17
2022-10-25T23:55:23.347Z,19.02
2022-10-25T23:57:56.499Z,20.08
